sensor_id;sensor_type;location;lat;lon;timestamp;P1;durP1;ratioP1;P2;durP2;ratioP2
54452;SDS011;40363;52.270;10.546;2023-09-18T00:02:10;5.50;;;3.05;;
54452;SDS011;40363;52.270;10.546;2023-09-18T00:04:37;5.55;;;2.72;;
54452;SDS011;40363;52.270;10.546;2023-09-18T00:07:04;3.75;;;2.45;;
54452;SDS011;40363;52.270;10.546;2023-09-18T00:09:32;4.47;;;2.90;;
54452;SDS011;40363;52.270;10.546;2023-09-18T00:11:58;4.68;;;2.55;;
54452;SDS011;40363;52.270;10.546;2023-09-18T00:14:25;3.22;;;2.72;;
54452;SDS011;40363;52.270;10.546;2023-09-18T00:16:52;3.05;;;2.38;;
54452;SDS011;40363;52.270;10.546;2023-09-18T00:19:19;4.53;;;2.83;;
54452;SDS011;40363;52.270;10.546;2023-09-18T00:21:45;6.10;;;2.65;;
54452;SDS011;40363;52.270;10.546;2023-09-18T00:24:12;3.75;;;2.65;;
54452;SDS011;40363;52.270;10.546;2023-09-18T00:26:40;4.63;;;3.03;;
54452;SDS011;40363;52.270;10.546;2023-09-18T00:29:06;4.28;;;2.92;;
54452;SDS011;40363;52.270;10.546;2023-09-18T00:31:33;4.32;;;2.83;;
54452;SDS011;40363;52.270;10.546;2023-09-18T00:34:00;3.50;;;2.58;;
54452;SDS011;40363;52.270;10.546;2023-09-18T00:36:26;4.82;;;3.10;;
54452;SDS011;40363;52.270;10.546;2023-09-18T00:38:53;4.35;;;2.83;;
54452;SDS011;40363;52.270;10.546;2023-09-18T00:41:19;3.85;;;3.05;;
54452;SDS011;40363;52.270;10.546;2023-09-18T00:43:47;4.20;;;3.08;;
54452;SDS011;40363;52.270;10.546;2023-09-18T00:46:14;3.25;;;2.40;;
54452;SDS011;40363;52.270;10.546;2023-09-18T00:48:40;4.85;;;2.95;;
54452;SDS011;40363;52.270;10.546;2023-09-18T00:51:07;5.07;;;2.72;;
54452;SDS011;40363;52.270;10.546;2023-09-18T00:53:35;3.50;;;2.85;;
54452;SDS011;40363;52.270;10.546;2023-09-18T00:56:03;7.35;;;2.97;;
54452;SDS011;40363;52.270;10.546;2023-09-18T00:58:30;4.32;;;3.15;;
54452;SDS011;40363;52.270;10.546;2023-09-18T01:00:59;3.45;;;2.80;;
54452;SDS011;40363;52.270;10.546;2023-09-18T01:03:26;4.65;;;2.95;;
54452;SDS011;40363;52.270;10.546;2023-09-18T01:05:53;4.85;;;2.88;;
54452;SDS011;40363;52.270;10.546;2023-09-18T01:08:20;7.38;;;4.10;;
54452;SDS011;40363;52.270;10.546;2023-09-18T01:10:47;3.72;;;3.10;;
54452;SDS011;40363;52.270;10.546;2023-09-18T01:13:21;5.68;;;3.03;;
54452;SDS011;40363;52.270;10.546;2023-09-18T01:15:54;5.97;;;3.20;;
54452;SDS011;40363;52.270;10.546;2023-09-18T01:18:25;5.25;;;3.22;;
54452;SDS011;40363;52.270;10.546;2023-09-18T01:20:51;5.25;;;2.90;;
54452;SDS011;40363;52.270;10.546;2023-09-18T01:23:19;6.05;;;3.40;;
54452;SDS011;40363;52.270;10.546;2023-09-18T01:25:46;4.32;;;3.15;;
54452;SDS011;40363;52.270;10.546;2023-09-18T01:28:12;3.60;;;2.92;;
54452;SDS011;40363;52.270;10.546;2023-09-18T01:30:41;4.50;;;3.17;;
54452;SDS011;40363;52.270;10.546;2023-09-18T01:33:08;5.10;;;3.47;;
54452;SDS011;40363;52.270;10.546;2023-09-18T01:35:36;6.65;;;3.05;;
54452;SDS011;40363;52.270;10.546;2023-09-18T01:38:04;5.47;;;3.72;;
54452;SDS011;40363;52.270;10.546;2023-09-18T01:40:32;5.05;;;3.38;;
54452;SDS011;40363;52.270;10.546;2023-09-18T01:42:59;4.97;;;3.40;;
54452;SDS011;40363;52.270;10.546;2023-09-18T01:45:26;3.47;;;3.03;;
54452;SDS011;40363;52.270;10.546;2023-09-18T01:47:52;5.70;;;3.13;;
54452;SDS011;40363;52.270;10.546;2023-09-18T01:50:19;6.75;;;3.33;;
54452;SDS011;40363;52.270;10.546;2023-09-18T01:52:46;5.05;;;3.33;;
54452;SDS011;40363;52.270;10.546;2023-09-18T01:55:12;3.92;;;3.05;;
54452;SDS011;40363;52.270;10.546;2023-09-18T01:57:40;4.32;;;2.92;;
54452;SDS011;40363;52.270;10.546;2023-09-18T02:00:08;4.47;;;3.10;;
54452;SDS011;40363;52.270;10.546;2023-09-18T02:02:35;6.22;;;3.50;;
54452;SDS011;40363;52.270;10.546;2023-09-18T02:05:02;5.78;;;3.15;;
54452;SDS011;40363;52.270;10.546;2023-09-18T02:07:29;4.45;;;3.47;;
54452;SDS011;40363;52.270;10.546;2023-09-18T02:09:56;6.55;;;3.45;;
54452;SDS011;40363;52.270;10.546;2023-09-18T02:12:23;4.90;;;3.10;;
54452;SDS011;40363;52.270;10.546;2023-09-18T02:14:51;4.68;;;3.03;;
54452;SDS011;40363;52.270;10.546;2023-09-18T02:17:17;4.88;;;3.30;;
54452;SDS011;40363;52.270;10.546;2023-09-18T02:19:45;6.00;;;3.58;;
54452;SDS011;40363;52.270;10.546;2023-09-18T02:22:12;6.55;;;3.13;;
54452;SDS011;40363;52.270;10.546;2023-09-18T02:24:38;6.00;;;4.00;;
54452;SDS011;40363;52.270;10.546;2023-09-18T02:27:05;5.25;;;3.65;;
54452;SDS011;40363;52.270;10.546;2023-09-18T02:29:32;4.55;;;3.38;;
54452;SDS011;40363;52.270;10.546;2023-09-18T02:32:00;4.40;;;3.08;;
54452;SDS011;40363;52.270;10.546;2023-09-18T02:34:27;4.97;;;3.67;;
54452;SDS011;40363;52.270;10.546;2023-09-18T02:36:53;4.75;;;3.17;;
54452;SDS011;40363;52.270;10.546;2023-09-18T02:39:20;4.57;;;2.95;;
54452;SDS011;40363;52.270;10.546;2023-09-18T02:41:46;4.47;;;3.42;;
54452;SDS011;40363;52.270;10.546;2023-09-18T02:44:13;6.07;;;3.42;;
54452;SDS011;40363;52.270;10.546;2023-09-18T02:46:39;5.07;;;3.58;;
54452;SDS011;40363;52.270;10.546;2023-09-18T02:49:09;5.43;;;3.05;;
54452;SDS011;40363;52.270;10.546;2023-09-18T02:51:36;6.05;;;3.00;;
54452;SDS011;40363;52.270;10.546;2023-09-18T02:54:02;4.55;;;3.47;;
54452;SDS011;40363;52.270;10.546;2023-09-18T02:56:29;6.20;;;3.42;;
54452;SDS011;40363;52.270;10.546;2023-09-18T02:58:56;4.65;;;3.53;;
54452;SDS011;40363;52.270;10.546;2023-09-18T03:01:22;4.20;;;3.17;;
54452;SDS011;40363;52.270;10.546;2023-09-18T03:03:49;6.70;;;4.15;;
54452;SDS011;40363;52.270;10.546;2023-09-18T03:06:17;4.65;;;3.47;;
54452;SDS011;40363;52.270;10.546;2023-09-18T03:08:43;7.57;;;4.32;;
54452;SDS011;40363;52.270;10.546;2023-09-18T03:11:10;4.60;;;3.60;;
54452;SDS011;40363;52.270;10.546;2023-09-18T03:13:42;5.00;;;3.47;;
54452;SDS011;40363;52.270;10.546;2023-09-18T03:16:10;6.80;;;4.03;;
54452;SDS011;40363;52.270;10.546;2023-09-18T03:18:36;6.38;;;3.80;;
54452;SDS011;40363;52.270;10.546;2023-09-18T03:21:03;4.65;;;3.83;;
54452;SDS011;40363;52.270;10.546;2023-09-18T03:23:31;5.57;;;4.05;;
54452;SDS011;40363;52.270;10.546;2023-09-18T03:25:58;5.53;;;3.78;;
54452;SDS011;40363;52.270;10.546;2023-09-18T03:28:25;6.00;;;3.70;;
54452;SDS011;40363;52.270;10.546;2023-09-18T03:30:52;3.88;;;3.30;;
54452;SDS011;40363;52.270;10.546;2023-09-18T03:33:18;5.13;;;3.53;;
54452;SDS011;40363;52.270;10.546;2023-09-18T03:35:45;6.68;;;4.03;;
54452;SDS011;40363;52.270;10.546;2023-09-18T03:38:13;7.65;;;4.15;;
54452;SDS011;40363;52.270;10.546;2023-09-18T03:40:41;7.03;;;4.50;;
54452;SDS011;40363;52.270;10.546;2023-09-18T03:45:35;5.90;;;3.85;;
54452;SDS011;40363;52.270;10.546;2023-09-18T03:48:02;5.85;;;4.00;;
54452;SDS011;40363;52.270;10.546;2023-09-18T03:50:28;5.38;;;3.47;;
54452;SDS011;40363;52.270;10.546;2023-09-18T03:52:55;4.85;;;3.67;;
54452;SDS011;40363;52.270;10.546;2023-09-18T03:55:22;4.57;;;3.65;;
54452;SDS011;40363;52.270;10.546;2023-09-18T03:57:49;6.15;;;3.90;;
54452;SDS011;40363;52.270;10.546;2023-09-18T04:00:18;5.47;;;3.45;;
54452;SDS011;40363;52.270;10.546;2023-09-18T04:02:45;5.78;;;4.32;;
54452;SDS011;40363;52.270;10.546;2023-09-18T04:05:11;6.00;;;3.97;;
54452;SDS011;40363;52.270;10.546;2023-09-18T04:07:38;4.30;;;3.47;;
54452;SDS011;40363;52.270;10.546;2023-09-18T04:10:05;4.72;;;3.40;;
54452;SDS011;40363;52.270;10.546;2023-09-18T04:12:32;6.68;;;4.70;;
54452;SDS011;40363;52.270;10.546;2023-09-18T04:15:00;4.75;;;3.50;;
54452;SDS011;40363;52.270;10.546;2023-09-18T04:17:27;5.93;;;3.88;;
54452;SDS011;40363;52.270;10.546;2023-09-18T04:19:54;6.00;;;4.05;;
54452;SDS011;40363;52.270;10.546;2023-09-18T04:22:21;5.80;;;4.03;;
54452;SDS011;40363;52.270;10.546;2023-09-18T04:24:47;5.28;;;3.65;;
54452;SDS011;40363;52.270;10.546;2023-09-18T04:27:14;6.15;;;4.47;;
54452;SDS011;40363;52.270;10.546;2023-09-18T04:29:40;6.00;;;4.32;;
54452;SDS011;40363;52.270;10.546;2023-09-18T04:32:08;5.30;;;3.88;;
54452;SDS011;40363;52.270;10.546;2023-09-18T04:34:35;5.80;;;3.80;;
54452;SDS011;40363;52.270;10.546;2023-09-18T04:37:02;6.85;;;3.80;;
54452;SDS011;40363;52.270;10.546;2023-09-18T04:39:29;4.80;;;3.47;;
54452;SDS011;40363;52.270;10.546;2023-09-18T04:41:59;5.07;;;3.50;;
54452;SDS011;40363;52.270;10.546;2023-09-18T04:44:28;5.07;;;3.97;;
54452;SDS011;40363;52.270;10.546;2023-09-18T04:46:55;5.43;;;3.88;;
54452;SDS011;40363;52.270;10.546;2023-09-18T04:49:24;6.90;;;4.30;;
54452;SDS011;40363;52.270;10.546;2023-09-18T04:51:51;5.38;;;3.90;;
54452;SDS011;40363;52.270;10.546;2023-09-18T04:54:18;6.47;;;3.83;;
54452;SDS011;40363;52.270;10.546;2023-09-18T04:56:44;7.50;;;3.60;;
54452;SDS011;40363;52.270;10.546;2023-09-18T04:59:11;8.23;;;4.20;;
54452;SDS011;40363;52.270;10.546;2023-09-18T05:01:38;8.38;;;4.18;;
54452;SDS011;40363;52.270;10.546;2023-09-18T05:04:04;4.13;;;3.15;;
54452;SDS011;40363;52.270;10.546;2023-09-18T05:06:32;6.40;;;4.03;;
54452;SDS011;40363;52.270;10.546;2023-09-18T05:08:59;5.38;;;3.85;;
54452;SDS011;40363;52.270;10.546;2023-09-18T05:11:26;4.93;;;3.67;;
54452;SDS011;40363;52.270;10.546;2023-09-18T05:13:52;7.70;;;4.53;;
54452;SDS011;40363;52.270;10.546;2023-09-18T05:16:19;5.50;;;3.30;;
54452;SDS011;40363;52.270;10.546;2023-09-18T05:18:45;5.55;;;4.45;;
54452;SDS011;40363;52.270;10.546;2023-09-18T05:21:12;6.78;;;3.83;;
54452;SDS011;40363;52.270;10.546;2023-09-18T05:23:40;5.55;;;3.55;;
54452;SDS011;40363;52.270;10.546;2023-09-18T05:26:06;6.95;;;3.92;;
54452;SDS011;40363;52.270;10.546;2023-09-18T05:28:33;4.50;;;3.70;;
54452;SDS011;40363;52.270;10.546;2023-09-18T05:30:59;4.45;;;3.70;;
54452;SDS011;40363;52.270;10.546;2023-09-18T05:33:26;4.47;;;3.70;;
54452;SDS011;40363;52.270;10.546;2023-09-18T05:35:53;6.95;;;4.07;;
54452;SDS011;40363;52.270;10.546;2023-09-18T05:38:20;5.93;;;3.90;;
54452;SDS011;40363;52.270;10.546;2023-09-18T05:40:48;6.10;;;3.80;;
54452;SDS011;40363;52.270;10.546;2023-09-18T05:43:14;7.07;;;3.75;;
54452;SDS011;40363;52.270;10.546;2023-09-18T05:45:41;6.97;;;4.03;;
54452;SDS011;40363;52.270;10.546;2023-09-18T05:48:07;4.25;;;3.53;;
54452;SDS011;40363;52.270;10.546;2023-09-18T05:50:34;5.63;;;3.60;;
54452;SDS011;40363;52.270;10.546;2023-09-18T05:53:02;6.03;;;4.07;;
54452;SDS011;40363;52.270;10.546;2023-09-18T05:55:29;7.20;;;3.83;;
54452;SDS011;40363;52.270;10.546;2023-09-18T05:57:58;4.32;;;3.70;;
54452;SDS011;40363;52.270;10.546;2023-09-18T06:00:25;4.43;;;3.35;;
54452;SDS011;40363;52.270;10.546;2023-09-18T06:02:52;4.35;;;3.40;;
54452;SDS011;40363;52.270;10.546;2023-09-18T06:05:19;5.32;;;4.65;;
54452;SDS011;40363;52.270;10.546;2023-09-18T06:07:47;7.40;;;3.60;;
54452;SDS011;40363;52.270;10.546;2023-09-18T06:10:14;7.22;;;4.28;;
54452;SDS011;40363;52.270;10.546;2023-09-18T06:12:41;4.95;;;3.58;;
54452;SDS011;40363;52.270;10.546;2023-09-18T06:15:10;8.30;;;3.40;;
54452;SDS011;40363;52.270;10.546;2023-09-18T06:17:37;5.97;;;3.63;;
54452;SDS011;40363;52.270;10.546;2023-09-18T06:20:04;5.05;;;3.42;;
54452;SDS011;40363;52.270;10.546;2023-09-18T06:22:34;6.45;;;3.90;;
54452;SDS011;40363;52.270;10.546;2023-09-18T06:25:02;6.20;;;4.20;;
54452;SDS011;40363;52.270;10.546;2023-09-18T06:27:28;4.47;;;3.50;;
54452;SDS011;40363;52.270;10.546;2023-09-18T06:29:55;4.35;;;3.92;;
54452;SDS011;40363;52.270;10.546;2023-09-18T06:32:23;4.95;;;3.70;;
54452;SDS011;40363;52.270;10.546;2023-09-18T06:34:49;6.18;;;4.10;;
54452;SDS011;40363;52.270;10.546;2023-09-18T06:37:16;4.78;;;3.72;;
54452;SDS011;40363;52.270;10.546;2023-09-18T06:39:43;5.35;;;3.97;;
54452;SDS011;40363;52.270;10.546;2023-09-18T06:42:10;6.82;;;3.92;;
54452;SDS011;40363;52.270;10.546;2023-09-18T06:44:37;4.65;;;3.70;;
54452;SDS011;40363;52.270;10.546;2023-09-18T06:47:04;5.90;;;4.03;;
54452;SDS011;40363;52.270;10.546;2023-09-18T06:49:32;6.80;;;4.00;;
54452;SDS011;40363;52.270;10.546;2023-09-18T06:51:59;5.22;;;4.20;;
54452;SDS011;40363;52.270;10.546;2023-09-18T06:54:26;5.90;;;3.40;;
54452;SDS011;40363;52.270;10.546;2023-09-18T06:56:52;6.18;;;3.60;;
54452;SDS011;40363;52.270;10.546;2023-09-18T06:59:19;5.28;;;3.20;;
54452;SDS011;40363;52.270;10.546;2023-09-18T07:01:45;4.80;;;4.30;;
54452;SDS011;40363;52.270;10.546;2023-09-18T07:04:12;5.30;;;3.38;;
54452;SDS011;40363;52.270;10.546;2023-09-18T07:06:40;7.25;;;3.25;;
54452;SDS011;40363;52.270;10.546;2023-09-18T07:09:06;5.22;;;3.40;;
54452;SDS011;40363;52.270;10.546;2023-09-18T07:11:37;6.63;;;3.53;;
54452;SDS011;40363;52.270;10.546;2023-09-18T07:14:03;9.18;;;4.00;;
54452;SDS011;40363;52.270;10.546;2023-09-18T07:16:31;4.05;;;3.22;;
54452;SDS011;40363;52.270;10.546;2023-09-18T07:18:59;6.95;;;3.47;;
54452;SDS011;40363;52.270;10.546;2023-09-18T07:21:26;5.32;;;3.55;;
54452;SDS011;40363;52.270;10.546;2023-09-18T07:23:55;4.82;;;3.53;;
54452;SDS011;40363;52.270;10.546;2023-09-18T07:26:21;4.93;;;3.33;;
54452;SDS011;40363;52.270;10.546;2023-09-18T07:28:48;6.05;;;3.35;;
54452;SDS011;40363;52.270;10.546;2023-09-18T07:31:14;7.05;;;3.53;;
54452;SDS011;40363;52.270;10.546;2023-09-18T07:33:41;5.63;;;3.95;;
54452;SDS011;40363;52.270;10.546;2023-09-18T07:36:08;4.97;;;3.47;;
54452;SDS011;40363;52.270;10.546;2023-09-18T07:38:35;5.20;;;3.75;;
54452;SDS011;40363;52.270;10.546;2023-09-18T07:41:03;4.35;;;3.50;;
54452;SDS011;40363;52.270;10.546;2023-09-18T07:43:30;4.50;;;3.10;;
54452;SDS011;40363;52.270;10.546;2023-09-18T07:45:56;5.95;;;3.80;;
54452;SDS011;40363;52.270;10.546;2023-09-18T07:48:24;7.70;;;3.90;;
54452;SDS011;40363;52.270;10.546;2023-09-18T07:50:51;6.35;;;3.95;;
54452;SDS011;40363;52.270;10.546;2023-09-18T07:53:19;6.40;;;4.03;;
54452;SDS011;40363;52.270;10.546;2023-09-18T07:55:47;5.72;;;3.25;;
54452;SDS011;40363;52.270;10.546;2023-09-18T07:58:15;5.90;;;3.83;;
54452;SDS011;40363;52.270;10.546;2023-09-18T08:00:42;4.57;;;3.70;;
54452;SDS011;40363;52.270;10.546;2023-09-18T08:03:08;5.28;;;4.10;;
54452;SDS011;40363;52.270;10.546;2023-09-18T08:05:35;5.53;;;3.75;;
54452;SDS011;40363;52.270;10.546;2023-09-18T08:08:02;5.57;;;4.00;;
54452;SDS011;40363;52.270;10.546;2023-09-18T08:10:30;7.57;;;3.40;;
54452;SDS011;40363;52.270;10.546;2023-09-18T08:12:57;5.60;;;4.00;;
54452;SDS011;40363;52.270;10.546;2023-09-18T08:15:25;5.60;;;3.50;;
54452;SDS011;40363;52.270;10.546;2023-09-18T08:17:52;5.45;;;3.67;;
54452;SDS011;40363;52.270;10.546;2023-09-18T08:20:18;5.60;;;3.30;;
54452;SDS011;40363;52.270;10.546;2023-09-18T08:22:45;7.05;;;3.70;;
54452;SDS011;40363;52.270;10.546;2023-09-18T08:25:13;3.95;;;3.05;;
54452;SDS011;40363;52.270;10.546;2023-09-18T08:27:40;4.50;;;3.25;;
54452;SDS011;40363;52.270;10.546;2023-09-18T08:30:07;6.07;;;3.50;;
54452;SDS011;40363;52.270;10.546;2023-09-18T08:32:36;4.85;;;3.60;;
54452;SDS011;40363;52.270;10.546;2023-09-18T08:35:03;6.68;;;3.10;;
54452;SDS011;40363;52.270;10.546;2023-09-18T08:37:30;4.55;;;3.58;;
54452;SDS011;40363;52.270;10.546;2023-09-18T08:39:56;5.80;;;4.47;;
54452;SDS011;40363;52.270;10.546;2023-09-18T08:42:24;6.20;;;3.58;;
54452;SDS011;40363;52.270;10.546;2023-09-18T08:44:52;5.80;;;3.17;;
54452;SDS011;40363;52.270;10.546;2023-09-18T08:47:23;5.03;;;3.50;;
54452;SDS011;40363;52.270;10.546;2023-09-18T08:49:52;5.80;;;3.47;;
54452;SDS011;40363;52.270;10.546;2023-09-18T08:52:21;9.35;;;3.40;;
54452;SDS011;40363;52.270;10.546;2023-09-18T08:54:49;4.38;;;3.40;;
54452;SDS011;40363;52.270;10.546;2023-09-18T08:57:17;9.75;;;3.40;;
54452;SDS011;40363;52.270;10.546;2023-09-18T08:59:44;7.57;;;3.38;;
54452;SDS011;40363;52.270;10.546;2023-09-18T09:02:12;6.93;;;3.63;;
54452;SDS011;40363;52.270;10.546;2023-09-18T09:04:38;7.00;;;3.10;;
54452;SDS011;40363;52.270;10.546;2023-09-18T09:07:06;4.57;;;2.97;;
54452;SDS011;40363;52.270;10.546;2023-09-18T09:09:33;5.75;;;3.33;;
54452;SDS011;40363;52.270;10.546;2023-09-18T09:12:00;6.75;;;3.58;;
54452;SDS011;40363;52.270;10.546;2023-09-18T09:14:26;7.53;;;3.38;;
54452;SDS011;40363;52.270;10.546;2023-09-18T09:16:54;9.32;;;3.83;;
54452;SDS011;40363;52.270;10.546;2023-09-18T09:19:28;10.30;;;3.75;;
54452;SDS011;40363;52.270;10.546;2023-09-18T09:21:56;5.13;;;2.83;;
54452;SDS011;40363;52.270;10.546;2023-09-18T09:24:36;8.43;;;3.95;;
54452;SDS011;40363;52.270;10.546;2023-09-18T09:27:04;5.80;;;3.42;;
54452;SDS011;40363;52.270;10.546;2023-09-18T09:29:30;8.38;;;3.53;;
54452;SDS011;40363;52.270;10.546;2023-09-18T09:31:58;4.78;;;2.70;;
54452;SDS011;40363;52.270;10.546;2023-09-18T09:34:38;5.47;;;2.38;;
54452;SDS011;40363;52.270;10.546;2023-09-18T09:37:04;8.93;;;3.10;;
54452;SDS011;40363;52.270;10.546;2023-09-18T09:39:31;6.30;;;2.42;;
54452;SDS011;40363;52.270;10.546;2023-09-18T09:42:00;6.55;;;2.92;;
54452;SDS011;40363;52.270;10.546;2023-09-18T09:44:31;4.18;;;2.45;;
54452;SDS011;40363;52.270;10.546;2023-09-18T09:46:58;6.45;;;2.20;;
54452;SDS011;40363;52.270;10.546;2023-09-18T09:49:25;8.48;;;2.30;;
54452;SDS011;40363;52.270;10.546;2023-09-18T09:51:53;10.15;;;2.83;;
54452;SDS011;40363;52.270;10.546;2023-09-18T09:54:31;4.70;;;2.25;;
54452;SDS011;40363;52.270;10.546;2023-09-18T09:57:00;5.25;;;2.45;;
54452;SDS011;40363;52.270;10.546;2023-09-18T09:59:28;7.65;;;2.40;;
54452;SDS011;40363;52.270;10.546;2023-09-18T10:01:58;5.32;;;2.05;;
54452;SDS011;40363;52.270;10.546;2023-09-18T10:04:25;9.30;;;2.30;;
54452;SDS011;40363;52.270;10.546;2023-09-18T10:06:55;7.93;;;3.28;;
54452;SDS011;40363;52.270;10.546;2023-09-18T10:09:25;6.63;;;2.25;;
54452;SDS011;40363;52.270;10.546;2023-09-18T10:11:54;10.77;;;3.25;;
54452;SDS011;40363;52.270;10.546;2023-09-18T10:14:29;5.47;;;2.50;;
54452;SDS011;40363;52.270;10.546;2023-09-18T10:16:59;7.47;;;3.03;;
54452;SDS011;40363;52.270;10.546;2023-09-18T10:19:32;8.38;;;2.50;;
54452;SDS011;40363;52.270;10.546;2023-09-18T10:22:06;5.15;;;2.13;;
54452;SDS011;40363;52.270;10.546;2023-09-18T10:24:42;5.13;;;2.28;;
54452;SDS011;40363;52.270;10.546;2023-09-18T10:27:14;7.78;;;2.88;;
54452;SDS011;40363;52.270;10.546;2023-09-18T10:29:44;9.02;;;2.33;;
54452;SDS011;40363;52.270;10.546;2023-09-18T10:32:16;3.42;;;2.10;;
54452;SDS011;40363;52.270;10.546;2023-09-18T10:34:45;7.88;;;2.25;;
54452;SDS011;40363;52.270;10.546;2023-09-18T10:37:12;6.10;;;2.25;;
54452;SDS011;40363;52.270;10.546;2023-09-18T10:39:41;5.70;;;2.28;;
54452;SDS011;40363;52.270;10.546;2023-09-18T10:42:09;6.65;;;2.42;;
54452;SDS011;40363;52.270;10.546;2023-09-18T10:44:36;4.90;;;2.30;;
54452;SDS011;40363;52.270;10.546;2023-09-18T10:47:06;7.10;;;2.53;;
54452;SDS011;40363;52.270;10.546;2023-09-18T10:49:35;7.93;;;2.50;;
54452;SDS011;40363;52.270;10.546;2023-09-18T10:52:02;6.50;;;2.60;;
54452;SDS011;40363;52.270;10.546;2023-09-18T10:54:29;6.85;;;2.85;;
54452;SDS011;40363;52.270;10.546;2023-09-18T10:56:58;6.70;;;2.40;;
54452;SDS011;40363;52.270;10.546;2023-09-18T10:59:27;13.40;;;2.80;;
54452;SDS011;40363;52.270;10.546;2023-09-18T11:01:53;7.82;;;2.65;;
54452;SDS011;40363;52.270;10.546;2023-09-18T11:04:22;9.65;;;3.83;;
54452;SDS011;40363;52.270;10.546;2023-09-18T11:07:02;8.50;;;2.40;;
54452;SDS011;40363;52.270;10.546;2023-09-18T11:09:31;4.63;;;2.25;;
54452;SDS011;40363;52.270;10.546;2023-09-18T11:12:02;8.48;;;2.78;;
54452;SDS011;40363;52.270;10.546;2023-09-18T11:14:42;5.85;;;2.45;;
54452;SDS011;40363;52.270;10.546;2023-09-18T11:20:08;4.55;;;1.95;;
54452;SDS011;40363;52.270;10.546;2023-09-18T11:22:37;4.40;;;2.15;;
54452;SDS011;40363;52.270;10.546;2023-09-18T11:25:28;5.32;;;2.20;;
54452;SDS011;40363;52.270;10.546;2023-09-18T11:27:56;7.38;;;2.17;;
54452;SDS011;40363;52.270;10.546;2023-09-18T11:30:23;6.97;;;2.13;;
54452;SDS011;40363;52.270;10.546;2023-09-18T11:32:50;6.95;;;2.22;;
54452;SDS011;40363;52.270;10.546;2023-09-18T11:35:19;6.05;;;2.10;;
54452;SDS011;40363;52.270;10.546;2023-09-18T11:37:45;8.10;;;2.13;;
54452;SDS011;40363;52.270;10.546;2023-09-18T11:40:28;4.13;;;1.75;;
54452;SDS011;40363;52.270;10.546;2023-09-18T11:45:51;5.28;;;2.20;;
54452;SDS011;40363;52.270;10.546;2023-09-18T11:48:18;6.57;;;1.95;;
54452;SDS011;40363;52.270;10.546;2023-09-18T11:50:47;5.72;;;2.70;;
54452;SDS011;40363;52.270;10.546;2023-09-18T11:53:15;6.00;;;2.08;;
54452;SDS011;40363;52.270;10.546;2023-09-18T11:55:44;2.85;;;1.67;;
54452;SDS011;40363;52.270;10.546;2023-09-18T11:58:11;5.38;;;1.75;;
54452;SDS011;40363;52.270;10.546;2023-09-18T12:00:38;5.35;;;1.90;;
54452;SDS011;40363;52.270;10.546;2023-09-18T12:03:14;7.35;;;2.13;;
54452;SDS011;40363;52.270;10.546;2023-09-18T12:05:51;3.63;;;1.63;;
54452;SDS011;40363;52.270;10.546;2023-09-18T12:08:18;5.05;;;2.20;;
54452;SDS011;40363;52.270;10.546;2023-09-18T12:10:47;9.02;;;2.30;;
54452;SDS011;40363;52.270;10.546;2023-09-18T12:13:15;4.80;;;2.05;;
54452;SDS011;40363;52.270;10.546;2023-09-18T12:15:41;6.75;;;2.05;;
54452;SDS011;40363;52.270;10.546;2023-09-18T12:18:08;5.70;;;1.90;;
54452;SDS011;40363;52.270;10.546;2023-09-18T12:20:37;8.27;;;2.33;;
54452;SDS011;40363;52.270;10.546;2023-09-18T12:23:04;5.90;;;1.83;;
54452;SDS011;40363;52.270;10.546;2023-09-18T12:25:33;7.47;;;1.80;;
54452;SDS011;40363;52.270;10.546;2023-09-18T12:28:00;7.93;;;2.42;;
54452;SDS011;40363;52.270;10.546;2023-09-18T12:30:29;5.57;;;1.83;;
54452;SDS011;40363;52.270;10.546;2023-09-18T12:32:57;6.88;;;1.90;;
54452;SDS011;40363;52.270;10.546;2023-09-18T12:35:25;6.93;;;2.20;;
54452;SDS011;40363;52.270;10.546;2023-09-18T12:37:54;9.95;;;2.35;;
54452;SDS011;40363;52.270;10.546;2023-09-18T12:40:23;3.13;;;1.80;;
54452;SDS011;40363;52.270;10.546;2023-09-18T12:42:51;5.85;;;1.90;;
54452;SDS011;40363;52.270;10.546;2023-09-18T12:45:18;5.05;;;1.83;;
54452;SDS011;40363;52.270;10.546;2023-09-18T12:47:45;4.90;;;1.58;;
54452;SDS011;40363;52.270;10.546;2023-09-18T12:50:12;9.23;;;1.83;;
54452;SDS011;40363;52.270;10.546;2023-09-18T12:52:39;8.60;;;2.05;;
54452;SDS011;40363;52.270;10.546;2023-09-18T12:55:06;4.55;;;2.28;;
54452;SDS011;40363;52.270;10.546;2023-09-18T12:57:35;5.35;;;1.70;;
54452;SDS011;40363;52.270;10.546;2023-09-18T13:00:07;4.20;;;1.55;;
54452;SDS011;40363;52.270;10.546;2023-09-18T13:02:37;10.13;;;1.85;;
54452;SDS011;40363;52.270;10.546;2023-09-18T13:05:05;10.10;;;1.70;;
54452;SDS011;40363;52.270;10.546;2023-09-18T13:07:38;6.97;;;1.80;;
54452;SDS011;40363;52.270;10.546;2023-09-18T13:10:10;5.28;;;1.77;;
54452;SDS011;40363;52.270;10.546;2023-09-18T13:12:40;4.18;;;1.77;;
54452;SDS011;40363;52.270;10.546;2023-09-18T13:15:07;8.57;;;2.35;;
54452;SDS011;40363;52.270;10.546;2023-09-18T13:17:37;6.70;;;1.80;;
54452;SDS011;40363;52.270;10.546;2023-09-18T13:20:12;4.00;;;1.88;;
54452;SDS011;40363;52.270;10.546;2023-09-18T13:22:40;6.45;;;1.92;;
54452;SDS011;40363;52.270;10.546;2023-09-18T13:25:08;7.88;;;1.75;;
54452;SDS011;40363;52.270;10.546;2023-09-18T13:27:36;6.78;;;1.85;;
54452;SDS011;40363;52.270;10.546;2023-09-18T13:30:04;4.32;;;1.52;;
54452;SDS011;40363;52.270;10.546;2023-09-18T13:32:33;5.05;;;1.55;;
54452;SDS011;40363;52.270;10.546;2023-09-18T13:35:01;5.75;;;1.73;;
54452;SDS011;40363;52.270;10.546;2023-09-18T13:37:30;3.53;;;1.75;;
54452;SDS011;40363;52.270;10.546;2023-09-18T13:39:57;5.35;;;1.88;;
54452;SDS011;40363;52.270;10.546;2023-09-18T13:42:26;5.22;;;1.95;;
54452;SDS011;40363;52.270;10.546;2023-09-18T13:44:53;4.60;;;1.73;;
54452;SDS011;40363;52.270;10.546;2023-09-18T13:47:21;4.32;;;1.75;;
54452;SDS011;40363;52.270;10.546;2023-09-18T13:49:48;9.15;;;1.90;;
54452;SDS011;40363;52.270;10.546;2023-09-18T13:52:14;4.47;;;1.55;;
54452;SDS011;40363;52.270;10.546;2023-09-18T13:54:41;2.30;;;1.50;;
54452;SDS011;40363;52.270;10.546;2023-09-18T13:57:08;2.90;;;1.70;;
54452;SDS011;40363;52.270;10.546;2023-09-18T13:59:34;5.43;;;1.70;;
54452;SDS011;40363;52.270;10.546;2023-09-18T14:02:01;4.40;;;2.10;;
54452;SDS011;40363;52.270;10.546;2023-09-18T14:04:30;3.50;;;1.63;;
54452;SDS011;40363;52.270;10.546;2023-09-18T14:06:57;5.47;;;2.20;;
54452;SDS011;40363;52.270;10.546;2023-09-18T14:09:24;4.22;;;1.63;;
54452;SDS011;40363;52.270;10.546;2023-09-18T14:11:50;3.88;;;1.40;;
54452;SDS011;40363;52.270;10.546;2023-09-18T14:14:17;5.22;;;1.23;;
54452;SDS011;40363;52.270;10.546;2023-09-18T14:16:44;4.65;;;1.90;;
54452;SDS011;40363;52.270;10.546;2023-09-18T14:19:10;4.95;;;1.30;;
54452;SDS011;40363;52.270;10.546;2023-09-18T14:21:38;4.90;;;2.40;;
54452;SDS011;40363;52.270;10.546;2023-09-18T14:24:05;5.03;;;1.52;;
54452;SDS011;40363;52.270;10.546;2023-09-18T14:26:32;5.47;;;1.70;;
54452;SDS011;40363;52.270;10.546;2023-09-18T14:29:05;4.78;;;1.40;;
54452;SDS011;40363;52.270;10.546;2023-09-18T14:31:31;3.42;;;1.63;;
54452;SDS011;40363;52.270;10.546;2023-09-18T14:33:58;6.60;;;1.63;;
54452;SDS011;40363;52.270;10.546;2023-09-18T14:36:25;6.45;;;1.80;;
54452;SDS011;40363;52.270;10.546;2023-09-18T14:38:53;6.22;;;1.60;;
54452;SDS011;40363;52.270;10.546;2023-09-18T14:41:20;6.15;;;2.30;;
54452;SDS011;40363;52.270;10.546;2023-09-18T14:43:48;9.20;;;2.58;;
54452;SDS011;40363;52.270;10.546;2023-09-18T14:46:15;4.85;;;1.70;;